Time;durP1;ratioP1;P1;durP2;ratioP2;P2;SDS_P1;SDS_P2;PMS_P1;PMS_P2;Temp;Humidity;BMP_temperature;BMP_pressure;BME280_temperature;BME280_humidity;BME280_pressure;Samples;Min_cycle;Max_cycle;Signal;HPM_P1;HPM_P2
2022/03/30 00:01:17;;;;;;;34.87;18.10;;;;;;;6.96;70.57;100702.41;5015431;28;20122;-81
2022/03/30 00:03:43;;;;;;;35.67;18.43;;;;;;;6.97;70.59;100703.25;5034515;28;20040;-84
2022/03/30 00:06:08;;;;;;;30.97;18.63;;;;;;;6.87;71.18;100700.88;5032091;28;20621;-83
2022/03/30 00:08:34;;;;;;;32.47;18.20;;;;;;;6.83;70.64;100700.41;5029162;28;20551;-83
2022/03/30 00:11:03;;;;;;;34.03;18.57;;;;;;;6.73;71.08;100683.72;5036330;28;20136;-81
2022/03/30 00:13:28;;;;;;;31.73;18.27;;;;;;;6.76;71.29;100699.53;5035628;28;20041;-83
2022/03/30 00:15:57;;;;;;;34.07;17.97;;;;;;;6.89;71.33;100714.97;5035407;28;20056;-81
2022/03/30 00:18:36;;;;;;;31.33;18.57;;;;;;;6.66;71.49;100685.53;5111906;27;20413;-87
2022/03/30 00:21:05;;;;;;;33.97;19.53;;;;;;;6.55;71.36;100674.22;5078123;28;20047;-84
2022/03/30 00:23:36;;;;;;;35.83;19.57;;;;;;;6.65;71.50;100697.31;5077573;28;20041;-86
2022/03/30 00:26:01;;;;;;;32.47;19.47;;;;;;;6.50;71.99;100678.50;5077648;28;20033;-85
2022/03/30 00:28:28;;;;;;;31.20;18.27;;;;;;;6.50;71.94;100678.50;5093781;28;20383;-85
2022/03/30 00:30:55;;;;;;;34.13;18.73;;;;;;;6.38;72.08;100679.00;5078555;28;20038;-83
2022/03/30 00:33:21;;;;;;;35.83;19.20;;;;;;;6.39;72.11;100685.19;5076688;28;20127;-86
2022/03/30 00:35:46;;;;;;;33.73;18.23;;;;;;;6.35;72.36;100683.91;5079658;28;20497;-85
2022/03/30 00:38:13;;;;;;;36.83;19.13;;;;;;;6.24;72.59;100680.69;5079274;28;20028;-87
2022/03/30 00:40:42;;;;;;;36.90;19.00;;;;;;;6.23;73.07;100680.88;5079900;28;20306;-80
2022/03/30 00:43:07;;;;;;;36.67;19.67;;;;;;;6.13;73.21;100659.63;5081244;28;20067;-81
2022/03/30 00:45:33;;;;;;;35.93;18.93;;;;;;;6.07;73.62;100671.16;5078624;28;20123;-81
2022/03/30 00:48:01;;;;;;;37.07;18.60;;;;;;;6.17;73.45;100695.06;5079404;28;20376;-81
2022/03/30 00:50:26;;;;;;;34.47;18.93;;;;;;;5.91;73.24;100664.06;5076977;28;20554;-80
2022/03/30 00:53:02;;;;;;;34.53;18.83;;;;;;;5.89;73.78;100664.25;5093458;28;20125;-86
2022/03/30 00:55:31;;;;;;;34.80;19.33;;;;;;;5.81;73.68;100664.34;5078484;28;20410;-85
2022/03/30 00:58:00;;;;;;;34.57;19.13;;;;;;;5.81;73.99;100675.09;5078888;28;20028;-86
2022/03/30 01:00:27;;;;;;;35.53;19.83;;;;;;;5.69;74.47;100665.81;5077717;28;20068;-81
2022/03/30 01:02:53;;;;;;;31.83;18.90;;;;;;;5.63;74.33;100662.03;5079246;28;20044;-80
2022/03/30 01:05:21;;;;;;;36.23;18.83;;;;;;;5.55;74.46;100664.78;5079258;28;20043;-82
2022/03/30 01:07:47;;;;;;;35.27;19.80;;;;;;;5.45;74.67;100654.28;5077077;28;20036;-84
2022/03/30 01:10:14;;;;;;;36.13;19.93;;;;;;;5.39;74.82;100644.28;5078235;28;20035;-85
2022/03/30 01:12:39;;;;;;;35.07;19.47;;;;;;;5.42;74.85;100673.47;5077429;28;20103;-81
2022/03/30 01:15:07;;;;;;;39.23;20.10;;;;;;;5.50;75.11;100678.75;5075128;28;20035;-83
2022/03/30 01:17:38;;;;;;;34.67;19.53;;;;;;;5.26;75.16;100657.50;5077032;28;20215;-82
2022/03/30 01:20:08;;;;;;;36.07;19.73;;;;;;;5.31;75.29;100673.91;5077272;28;20372;-87
2022/03/30 01:22:34;;;;;;;35.33;19.60;;;;;;;5.03;75.70;100634.19;5076619;28;21166;-81
2022/03/30 01:25:02;;;;;;;37.80;20.97;;;;;;;5.17;75.53;100656.75;5077860;28;20047;-81
2022/03/30 01:27:31;;;;;;;35.63;20.53;;;;;;;4.94;75.95;100636.13;5076704;28;21420;-80
2022/03/30 01:32:57;;;;;;;37.28;20.17;;;;;;;4.90;76.46;100643.69;5063635;28;20055;-80
2022/03/30 01:35:29;;;;;;;37.00;21.70;;;;;;;4.76;76.88;100633.75;5065305;28;20064;-84
2022/03/30 01:37:55;;;;;;;38.80;21.07;;;;;;;4.75;77.01;100645.47;5064262;28;20040;-81
2022/03/30 01:40:37;;;;;;;42.07;20.83;;;;;;;4.69;77.29;100624.72;5065628;28;21392;-82
2022/03/30 01:43:07;;;;;;;39.90;20.70;;;;;;;4.72;77.41;100643.16;5063946;28;20031;-81
2022/03/30 01:45:42;;;;;;;39.67;21.03;;;;;;;4.59;77.68;100642.91;5063472;28;20044;-82
2022/03/30 01:48:08;;;;;;;35.37;20.50;;;;;;;4.59;77.62;100648.28;5066953;28;20048;-81
2022/03/30 01:50:34;;;;;;;38.70;20.67;;;;;;;4.62;77.65;100650.59;5063428;28;20032;-85
2022/03/30 01:53:02;;;;;;;37.90;21.57;;;;;;;4.49;78.24;100635.91;5063803;28;20052;-84
2022/03/30 01:55:30;;;;;;;37.70;21.33;;;;;;;4.42;77.89;100626.06;5061106;28;20494;-87
2022/03/30 01:57:56;;;;;;;38.80;20.97;;;;;;;4.51;78.49;100641.09;5061910;28;20036;-83
2022/03/30 02:00:27;;;;;;;37.80;21.03;;;;;;;4.41;78.62;100630.59;5062794;28;20661;-84
2022/03/30 02:02:52;;;;;;;38.83;21.10;;;;;;;4.42;78.51;100626.91;5065123;28;20471;-88
2022/03/30 02:05:25;;;;;;;39.43;21.60;;;;;;;4.35;79.18;100617.88;5062533;28;20107;-82
2022/03/30 02:07:53;;;;;;;35.47;20.00;;;;;;;4.37;78.97;100623.91;5077798;28;20033;-81
2022/03/30 02:10:28;;;;;;;34.97;21.07;;;;;;;4.26;79.24;100619.78;5073726;28;20436;-87
2022/03/30 02:13:16;;;;;;;34.67;20.13;;;;;;;4.48;79.23;100642.28;5060776;28;20032;-84
2022/03/30 02:15:47;;;;;;;36.27;20.43;;;;;;;4.32;79.20;100618.25;5062622;28;20043;-80
2022/03/30 02:18:12;;;;;;;38.80;20.47;;;;;;;4.16;79.05;100595.88;5075491;28;20067;-80
2022/03/30 02:20:40;;;;;;;35.33;19.93;;;;;;;4.12;79.33;100597.25;5061562;28;20037;-81
2022/03/30 02:23:10;;;;;;;34.97;20.57;;;;;;;4.15;79.38;100588.84;5061703;28;20030;-85
2022/03/30 02:25:39;;;;;;;35.93;20.50;;;;;;;4.20;79.58;100597.19;5061016;28;20399;-85
2022/03/30 02:28:04;;;;;;;38.07;21.17;;;;;;;4.13;79.55;100585.47;5062469;28;20052;-87
2022/03/30 02:30:40;;;;;;;39.10;20.70;;;;;;;4.13;79.56;100588.16;5063010;28;20116;-81
2022/03/30 02:33:13;;;;;;;40.40;21.60;;;;;;;4.17;79.77;100592.16;5062129;28;20360;-86
2022/03/30 02:35:39;;;;;;;41.67;21.30;;;;;;;4.12;79.88;100581.16;5061841;28;20375;-84
2022/03/30 02:38:09;;;;;;;39.97;21.40;;;;;;;4.05;80.01;100578.34;5061384;28;20028;-86
2022/03/30 02:40:35;;;;;;;41.30;20.90;;;;;;;4.10;80.35;100569.75;5060115;28;20035;-83
2022/03/30 02:43:01;;;;;;;37.20;20.67;;;;;;;4.29;80.28;100606.00;5062218;28;20044;-82
2022/03/30 02:45:26;;;;;;;37.57;20.77;;;;;;;4.10;80.23;100568.94;5061438;28;20032;-81
2022/03/30 02:50:36;;;;;;;39.60;21.33;;;;;;;4.06;80.17;100558.53;5062301;28;20404;-88
2022/03/30 02:53:01;;;;;;;39.27;21.23;;;;;;;3.99;80.53;100551.38;5063244;28;20044;-91
2022/03/30 02:55:34;;;;;;;37.00;21.23;;;;;;;4.12;80.30;100561.53;5061486;28;20398;-88
2022/03/30 02:58:04;;;;;;;38.67;21.20;;;;;;;4.07;80.54;100564.75;5062940;28;20043;-81
2022/03/30 03:00:29;;;;;;;40.23;21.20;;;;;;;4.10;80.46;100564.38;5060742;28;20028;-81
2022/03/30 03:03:00;;;;;;;37.00;19.90;;;;;;;4.04;80.47;100555.22;5076163;28;20068;-80
2022/03/30 03:05:34;;;;;;;37.50;20.50;;;;;;;4.09;80.76;100554.66;5061592;28;20527;-81
2022/03/30 03:08:04;;;;;;;40.63;20.80;;;;;;;4.03;80.37;100541.97;5062422;28;20513;-84
2022/03/30 03:10:34;;;;;;;38.33;20.90;;;;;;;4.11;80.62;100559.84;5061147;28;20036;-81
2022/03/30 03:13:03;;;;;;;37.80;21.03;;;;;;;4.01;80.79;100549.34;5061491;28;20123;-86
2022/03/30 03:15:32;;;;;;;38.40;19.97;;;;;;;4.02;80.65;100551.03;5061261;28;20047;-84
2022/03/30 03:17:58;;;;;;;36.73;19.90;;;;;;;4.01;80.35;100538.63;5074767;28;20060;-82
2022/03/30 03:20:27;;;;;;;37.60;21.00;;;;;;;4.08;80.78;100561.06;5060815;28;20082;-85
2022/03/30 03:23:03;;;;;;;35.43;20.43;;;;;;;3.96;80.93;100536.50;5076414;28;20029;-87
2022/03/30 03:25:35;;;;;;;39.53;20.40;;;;;;;3.99;80.94;100551.38;5060649;28;20066;-82
2022/03/30 03:28:01;;;;;;;39.47;20.10;;;;;;;4.01;81.21;100549.34;5054572;28;20058;-82
2022/03/30 03:30:30;;;;;;;41.20;20.93;;;;;;;3.91;81.48;100533.50;5060462;28;20043;-86
2022/03/30 03:32:59;;;;;;;36.03;20.57;;;;;;;4.14;81.68;100576.44;5060688;28;20041;-86
2022/03/30 03:35:25;;;;;;;36.80;20.73;;;;;;;3.91;81.10;100543.38;5059866;28;20101;-88
2022/03/30 03:37:53;;;;;;;37.67;20.97;;;;;;;3.96;81.53;100552.56;5060987;28;20036;-82
2022/03/30 03:40:18;;;;;;;33.63;19.77;;;;;;;4.05;81.27;100564.06;5060280;28;20124;-85
2022/03/30 03:42:44;;;;;;;38.77;20.87;;;;;;;3.96;81.39;100536.50;5060834;28;20024;-87
2022/03/30 03:45:10;;;;;;;36.20;19.87;;;;;;;3.97;81.21;100534.63;5061137;28;20479;-81
2022/03/30 03:47:36;;;;;;;41.97;20.23;;;;;;;3.92;81.35;100526.28;5060027;28;20745;-82
2022/03/30 03:50:05;;;;;;;38.77;21.73;;;;;;;3.81;81.24;100509.59;5060780;28;20676;-85
2022/03/30 03:52:31;;;;;;;38.00;20.60;;;;;;;3.93;81.13;100542.22;5061112;28;20060;-85
2022/03/30 03:54:57;;;;;;;40.50;21.00;;;;;;;3.86;81.33;100536.72;5060714;28;20511;-86
2022/03/30 03:57:25;;;;;;;40.37;20.80;;;;;;;3.84;81.21;100536.03;5061465;28;20052;-84
2022/03/30 03:59:51;;;;;;;36.83;20.37;;;;;;;3.83;81.11;100531.69;5060966;28;20475;-82
2022/03/30 04:02:18;;;;;;;34.63;20.20;;;;;;;3.75;81.14;100529.03;5060282;28;20044;-84
2022/03/30 04:04:44;;;;;;;40.13;21.30;;;;;;;3.65;81.28;100518.53;5072959;28;20063;-84
2022/03/30 04:07:10;;;;;;;36.30;19.73;;;;;;;3.65;80.88;100518.53;5071645;28;20032;-88
2022/03/30 04:09:36;;;;;;;35.93;21.10;;;;;;;3.62;81.36;100524.25;5061284;28;20389;-85
2022/03/30 04:12:02;;;;;;;46.03;21.07;;;;;;;3.54;81.58;100510.91;5059037;28;20039;-90
2022/03/30 04:14:28;;;;;;;36.30;20.23;;;;;;;3.48;81.74;100512.44;5059791;28;20044;-83
2022/03/30 04:16:53;;;;;;;38.47;20.30;;;;;;;3.49;81.77;100513.25;5059383;28;20807;-81
2022/03/30 04:19:19;;;;;;;41.43;20.83;;;;;;;3.37;81.73;100510.97;5060395;28;20119;-81
2022/03/30 04:21:47;;;;;;;40.40;21.67;;;;;;;3.47;81.75;100526.81;5076719;28;20070;-85
2022/03/30 04:24:13;;;;;;;42.23;21.13;;;;;;;3.31;81.71;100510.81;5061560;28;21385;-83
2022/03/30 04:26:39;;;;;;;39.67;21.20;;;;;;;3.24;82.10;100516.03;5060833;28;20050;-82
2022/03/30 04:29:05;;;;;;;37.60;20.63;;;;;;;3.34;82.47;100534.56;5060542;28;20040;-87
2022/03/30 04:31:36;;;;;;;41.20;19.93;;;;;;;3.18;82.59;100512.19;5075032;28;20472;-87
2022/03/30 04:34:02;;;;;;;40.67;21.30;;;;;;;3.12;82.74;100512.88;5060284;28;20044;-84
2022/03/30 04:36:30;;;;;;;37.77;20.50;;;;;;;3.16;82.78;100532.94;5057845;28;20037;-83
2022/03/30 04:39:00;;;;;;;40.83;21.60;;;;;;;3.08;83.15;100510.72;5061915;28;20094;-85
2022/03/30 04:41:46;;;;;;;41.27;21.07;;;;;;;3.09;83.57;100523.06;5060342;28;20043;-83
2022/03/30 04:44:25;;;;;;;40.37;21.77;;;;;;;2.89;83.34;100501.22;5061347;28;20033;-87
2022/03/30 04:46:51;;;;;;;40.07;22.13;;;;;;;2.97;83.72;100526.13;5058218;28;20036;-82
2022/03/30 04:49:16;;;;;;;45.00;23.03;;;;;;;2.83;83.49;100511.59;5061692;28;20135;-81
2022/03/30 04:51:44;;;;;;;41.03;22.50;;;;;;;2.81;83.61;100515.44;5061131;28;20044;-82
2022/03/30 04:54:12;;;;;;;40.30;20.83;;;;;;;2.94;84.05;100541.66;5060515;28;20488;-81
2022/03/30 04:56:41;;;;;;;39.20;21.53;;;;;;;2.67;84.07;100515.09;5060084;28;20206;-81
2022/03/30 04:59:09;;;;;;;42.27;21.83;;;;;;;2.82;83.94;100547.38;5060386;28;20075;-83
2022/03/30 05:01:35;;;;;;;44.13;21.77;;;;;;;2.69;84.25;100533.66;5059237;28;20032;-84
2022/03/30 05:04:05;;;;;;;40.33;21.37;;;;;;;2.67;84.54;100525.00;5076135;28;20039;-81
2022/03/30 05:06:30;;;;;;;41.00;21.53;;;;;;;2.62;84.42;100522.78;5062463;28;20029;-84
2022/03/30 05:09:02;;;;;;;41.50;21.27;;;;;;;2.61;84.70;100525.66;5061609;28;20436;-85
2022/03/30 05:11:36;;;;;;;42.07;21.93;;;;;;;2.56;84.62;100526.16;5063456;28;20033;-84
2022/03/30 05:14:10;;;;;;;42.47;21.35;;;;;;;2.47;84.87;100509.25;5063697;28;20120;-89
2022/03/30 05:16:35;;;;;;;39.50;21.98;;;;;;;2.46;84.42;100514.78;5063890;28;20086;-82
2022/03/30 05:19:03;;;;;;;42.87;22.13;;;;;;;2.39;84.96;100500.41;5062965;28;20196;-82
2022/03/30 05:21:35;;;;;;;44.43;21.50;;;;;;;2.56;84.80;100544.03;5064447;28;20029;-81
2022/03/30 05:24:00;;;;;;;45.83;21.70;;;;;;;2.31;85.31;100503.91;5079360;28;20052;-82
2022/03/30 05:26:33;;;;;;;43.57;21.07;;;;;;;2.33;85.23;100520.63;5062719;28;20417;-83
2022/03/30 05:29:01;;;;;;;41.77;22.33;;;;;;;2.11;85.00;100493.53;5063475;28;20750;-84
2022/03/30 05:31:26;;;;;;;43.40;21.97;;;;;;;2.29;86.01;100516.63;5063966;28;20282;-81
2022/03/30 05:33:54;;;;;;;41.60;21.67;;;;;;;2.18;85.95;100497.22;5077619;28;20093;-84
2022/03/30 05:36:26;;;;;;;42.20;22.27;;;;;;;2.17;86.14;100497.38;5074994;28;20521;-81
2022/03/30 05:38:51;;;;;;;43.60;22.30;;;;;;;2.06;85.95;100484.34;5062958;28;20290;-83
2022/03/30 05:41:22;;;;;;;40.67;21.43;;;;;;;2.17;86.13;100508.91;5062861;28;20136;-83
2022/03/30 05:43:50;;;;;;;46.50;22.70;;;;;;;2.26;86.15;100514.25;5061884;28;20086;-86
2022/03/30 05:46:19;;;;;;;42.83;22.07;;;;;;;2.21;86.58;100505.91;5063657;28;20040;-86
2022/03/30 05:48:47;;;;;;;44.90;21.83;;;;;;;2.22;86.73;100507.56;5063365;28;20426;-87
2022/03/30 05:51:15;;;;;;;42.93;23.03;;;;;;;2.22;86.68;100511.09;5077807;28;20024;-85
2022/03/30 05:53:47;;;;;;;43.83;21.93;;;;;;;2.11;87.19;100492.69;5063480;28;20313;-87
2022/03/30 05:56:15;;;;;;;42.97;22.00;;;;;;;2.29;87.45;100516.63;5062653;28;20058;-87
2022/03/30 05:58:46;;;;;;;44.63;22.27;;;;;;;2.33;86.92;100517.97;5062433;28;20082;-87
2022/03/30 06:01:11;;;;;;;43.23;22.37;;;;;;;2.28;87.21;100506.91;5060921;28;20044;-83
2022/03/30 06:03:47;;;;;;;41.53;21.63;;;;;;;2.34;87.13;100498.25;5061424;28;20055;-84
2022/03/30 06:06:22;;;;;;;44.23;23.30;;;;;;;2.50;87.28;100524.13;5062707;28;20452;-81
2022/03/30 06:08:47;;;;;;;44.50;21.90;;;;;;;2.43;87.28;100507.09;5062639;28;20086;-84
2022/03/30 06:11:18;;;;;;;40.73;22.90;;;;;;;2.51;87.32;100510.59;5063090;28;20037;-83
2022/03/30 06:13:50;;;;;;;43.50;22.17;;;;;;;2.53;87.79;100513.94;5062029;28;20032;-87
2022/03/30 06:16:21;;;;;;;37.13;21.23;;;;;;;2.53;87.38;100510.44;5074442;28;20294;-86
2022/03/30 06:18:46;;;;;;;43.17;22.27;;;;;;;2.48;86.70;100502.91;5064419;28;20607;-82
2022/03/30 06:21:17;;;;;;;40.70;21.37;;;;;;;2.53;86.77;100491.72;5081580;28;20107;-81
2022/03/30 06:27:09;;;;;;;38.90;21.77;;;;;;;2.62;86.89;100485.34;5074127;28;20098;-81
2022/03/30 06:29:41;;;;;;;39.93;21.27;;;;;;;2.69;86.97;100486.38;5064286;28;20174;-84
2022/03/30 06:32:07;;;;;;;46.17;22.07;;;;;;;2.81;86.72;100504.75;5075931;28;20068;-86
2022/03/30 06:34:33;;;;;;;41.03;21.93;;;;;;;2.84;86.84;100488.34;5076382;28;20063;-83
2022/03/30 06:39:50;;;;;;;43.57;21.93;;;;;;;3.14;86.65;100516.22;5058013;28;20032;-81
2022/03/30 06:42:25;;;;;;;41.10;21.83;;;;;;;3.13;86.55;100498.47;5069585;28;20419;-80
2022/03/30 06:44:50;;;;;;;40.03;21.10;;;;;;;3.23;86.30;100490.25;5065628;28;20028;-93
2022/03/30 06:47:21;;;;;;;43.90;21.67;;;;;;;3.49;86.54;100514.09;5064380;28;20035;-87
2022/03/30 06:49:57;;;;;;;41.77;22.00;;;;;;;3.51;86.04;100517.44;5065500;28;20047;-80
2022/03/30 06:52:24;;;;;;;41.17;22.30;;;;;;;3.62;85.83;100513.53;5066311;28;20384;-89
2022/03/30 06:54:57;;;;;;;46.07;23.13;;;;;;;3.74;86.00;100522.03;5067900;28;20388;-81
2022/03/30 06:57:33;;;;;;;42.13;21.43;;;;;;;3.78;85.49;100518.00;5084034;28;20131;-90
2022/03/30 07:00:08;;;;;;;42.13;22.57;;;;;;;3.88;84.52;100502.50;5069551;28;20444;-80
2022/03/30 07:02:33;;;;;;;38.43;20.93;;;;;;;4.11;84.54;100522.31;5053135;28;20048;-81
2022/03/30 07:04:59;;;;;;;38.57;21.70;;;;;;;4.35;84.46;100540.09;5071846;28;20060;-80
2022/03/30 07:10:15;;;;;;;38.13;21.13;;;;;;;4.38;82.96;100502.19;5060859;28;20092;-88
2022/03/30 07:12:40;;;;;;;39.33;20.30;;;;;;;4.60;82.41;100515.75;5062295;28;20033;-85
2022/03/30 07:15:06;;;;;;;39.60;20.93;;;;;;;4.65;82.18;100506.16;5061922;28;20499;-81
2022/03/30 07:17:33;;;;;;;41.07;21.60;;;;;;;4.81;82.06;100507.84;5062738;28;20044;-80
2022/03/30 07:19:59;;;;;;;40.30;21.07;;;;;;;4.95;81.20;100508.91;5075658;28;20039;-83
2022/03/30 07:22:24;;;;;;;38.70;21.30;;;;;;;5.15;81.09;100519.94;5061938;28;20028;-85
2022/03/30 07:24:49;;;;;;;39.97;20.93;;;;;;;5.31;80.55;100523.47;5061003;28;20036;-86
2022/03/30 07:27:15;;;;;;;39.30;20.97;;;;;;;5.29;80.04;100509.38;5060223;28;20039;-84
2022/03/30 07:29:40;;;;;;;43.87;21.27;;;;;;;5.41;79.51;100500.69;5075245;28;20042;-86
2022/03/30 07:32:06;;;;;;;41.17;21.13;;;;;;;5.64;79.51;100507.78;5059483;28;20113;-83
2022/03/30 07:34:31;;;;;;;41.33;21.07;;;;;;;5.73;79.05;100501.28;5065146;28;20032;-85
2022/03/30 07:37:09;;;;;;;37.07;19.97;;;;;;;5.89;77.57;100513.66;5064925;28;20107;-79
2022/03/30 07:39:34;;;;;;;35.07;19.77;;;;;;;5.98;76.61;100502.81;5063465;28;20051;-83
2022/03/30 07:42:03;;;;;;;35.10;19.50;;;;;;;6.32;77.32;100536.28;5074899;28;20032;-79
2022/03/30 07:44:31;;;;;;;35.97;19.73;;;;;;;6.12;76.36;100493.03;5064029;28;20033;-83
2022/03/30 07:47:06;;;;;;;35.87;18.93;;;;;;;6.41;76.26;100511.75;5077871;28;20479;-81
2022/03/30 07:49:34;;;;;;;32.43;17.97;;;;;;;6.54;75.12;100508.38;5063308;28;20039;-84
2022/03/30 07:52:03;;;;;;;33.90;17.23;;;;;;;6.64;74.85;100499.97;5064623;28;20040;-84
2022/03/30 07:54:29;;;;;;;31.83;16.77;;;;;;;6.69;72.79;100504.75;5062231;28;20123;-85
2022/03/30 07:56:54;;;;;;;33.43;18.97;;;;;;;6.89;73.18;100510.28;5041114;28;20036;-84
2022/03/30 07:59:20;;;;;;;36.80;21.47;;;;;;;6.85;72.00;100498.25;5060359;28;20032;-85
2022/03/30 08:01:46;;;;;;;35.50;23.87;;;;;;;7.09;72.41;100510.44;5060954;28;20029;-81
2022/03/30 08:04:12;;;;;;;37.87;25.17;;;;;;;7.14;71.71;100502.59;5063073;28;20135;-80
2022/03/30 08:06:43;;;;;;;41.27;26.23;;;;;;;7.35;71.31;100503.56;5067332;28;20116;-80
2022/03/30 08:09:25;;;;;;;36.90;24.03;;;;;;;7.77;72.06;100520.53;5065725;28;20044;-80
2022/03/30 08:11:50;;;;;;;36.33;21.20;;;;;;;7.90;69.78;100533.25;5062161;28;20032;-86
2022/03/30 08:14:16;;;;;;;32.33;18.20;;;;;;;7.74;69.22;100492.13;5063994;28;20047;-85
2022/03/30 08:16:41;;;;;;;29.80;17.63;;;;;;;8.06;69.39;100508.59;5060068;28;20028;-85
2022/03/30 08:19:08;;;;;;;30.67;16.87;;;;;;;8.31;68.36;100524.25;5076315;28;20055;-86
2022/03/30 08:24:22;;;;;;;29.10;16.80;;;;;;;8.83;66.38;100510.19;5060595;28;20062;-86
2022/03/30 08:26:47;;;;;;;27.40;15.43;;;;;;;9.09;66.18;100522.84;5061415;28;20032;-88
2022/03/30 08:29:20;;;;;;;28.93;15.53;;;;;;;9.16;64.95;100507.44;5063530;28;20036;-84
2022/03/30 08:31:47;;;;;;;29.77;16.00;;;;;;;9.31;63.46;100514.47;5080951;28;20031;-82
2022/03/30 08:34:14;;;;;;;27.83;15.47;;;;;;;9.50;63.68;100512.78;5060491;28;20063;-84
2022/03/30 08:36:42;;;;;;;44.97;16.83;;;;;;;9.73;63.86;100501.44;5063740;28;20040;-80
2022/03/30 08:39:11;;;;;;;27.53;15.47;;;;;;;10.08;62.78;100528.97;5067031;28;20063;-84
2022/03/30 08:42:02;;;;;;;29.27;15.90;;;;;;;10.21;62.97;100497.44;5066840;28;20029;-80
2022/03/30 08:44:28;;;;;;;26.53;15.23;;;;;;;10.45;62.11;100506.69;5078593;28;20098;-87
2022/03/30 08:47:00;;;;;;;26.23;14.63;;;;;;;10.57;61.40;100499.50;5068460;28;20419;-84
2022/03/30 08:49:38;;;;;;;28.00;15.90;;;;;;;10.83;60.90;100491.41;5069480;28;20024;-84
2022/03/30 08:52:11;;;;;;;26.77;15.80;;;;;;;10.93;58.98;100518.81;5064373;28;20098;-83
2022/03/30 08:54:43;;;;;;;28.87;15.70;;;;;;;11.25;60.04;100500.56;5066528;28;20040;-86
2022/03/30 08:57:10;;;;;;;27.07;15.67;;;;;;;11.33;58.01;100496.75;5071801;28;20043;-80
2022/03/30 08:59:36;;;;;;;24.87;14.67;;;;;;;11.63;57.24;100491.38;5074047;28;20017;-81
2022/03/30 09:02:03;;;;;;;24.77;15.00;;;;;;;11.86;57.57;100489.00;5072573;28;20356;-81
2022/03/30 09:04:29;;;;;;;26.40;14.97;;;;;;;11.96;55.39;100490.13;5069702;28;23554;-82
2022/03/30 09:06:59;;;;;;;24.27;14.97;;;;;;;12.38;56.11;100496.69;5086460;28;20111;-80
2022/03/30 09:09:35;;;;;;;24.77;14.03;;;;;;;12.78;56.22;100496.03;5070385;28;20403;-80
2022/03/30 09:12:17;;;;;;;26.40;14.50;;;;;;;12.97;54.88;100486.72;5072178;28;20039;-81
2022/03/30 09:14:59;;;;;;;25.77;13.80;;;;;;;12.97;52.84;100502.19;5065471;28;20033;-87
2022/03/30 09:17:44;;;;;;;24.97;14.03;;;;;;;13.18;54.21;100511.66;5073458;28;20052;-84
2022/03/30 09:20:24;;;;;;;24.17;14.20;;;;;;;12.84;53.46;100500.53;5072565;28;20486;-80
2022/03/30 09:22:56;;;;;;;23.90;14.97;;;;;;;12.43;54.09;100475.88;5068755;28;20052;-81
2022/03/30 09:25:27;;;;;;;22.53;14.40;;;;;;;12.63;53.82;100481.00;5066212;28;20159;-82
2022/03/30 09:27:58;;;;;;;21.97;13.73;;;;;;;12.70;54.06;100501.81;5067527;28;20068;-83
2022/03/30 09:31:12;;;;;;;25.07;14.53;;;;;;;12.66;52.91;100472.38;5064312;28;20086;-83
2022/03/30 09:33:38;;;;;;;26.87;14.60;;;;;;;12.92;52.69;100483.88;5067751;28;20044;-80
2022/03/30 09:36:03;;;;;;;25.07;14.03;;;;;;;13.26;51.56;100478.63;5062242;28;20040;-81
2022/03/30 09:38:37;;;;;;;21.73;13.90;;;;;;;13.46;52.03;100464.69;5061923;28;20043;-82
2022/03/30 09:41:04;;;;;;;24.03;14.40;;;;;;;13.71;50.48;100473.59;5060055;28;20123;-84
2022/03/30 09:43:30;;;;;;;25.07;13.77;;;;;;;13.82;50.26;100486.34;5061503;28;20032;-83
2022/03/30 09:46:11;;;;;;;24.23;14.10;;;;;;;14.07;50.98;100463.38;5062256;28;20487;-81
2022/03/30 09:48:40;;;;;;;25.00;13.63;;;;;;;14.09;48.27;100483.03;5061786;28;20442;-82
2022/03/30 09:51:07;;;;;;;23.27;13.93;;;;;;;13.91;48.94;100454.94;5069277;28;20030;-83
2022/03/30 09:53:34;;;;;;;23.53;13.97;;;;;;;13.83;48.13;100452.56;5062110;28;20056;-82
2022/03/30 09:56:18;;;;;;;22.40;13.37;;;;;;;14.24;50.12;100475.16;5064687;28;20020;-90
2022/03/30 09:58:44;;;;;;;21.80;13.95;;;;;;;14.09;48.61;100445.72;5071083;28;20359;-81
2022/03/30 10:01:23;;;;;;;22.27;13.60;;;;;;;14.25;48.10;100446.84;5078354;28;20422;-83
2022/03/30 10:03:59;;;;;;;22.57;13.93;;;;;;;14.09;48.59;100437.56;5056075;28;20035;-86
2022/03/30 10:06:26;;;;;;;24.20;13.87;;;;;;;14.42;48.43;100473.28;5058884;28;20024;-84
2022/03/30 10:08:53;;;;;;;22.53;13.47;;;;;;;14.63;49.75;100442.56;5060298;28;20028;-86
2022/03/30 10:11:21;;;;;;;22.33;14.50;;;;;;;14.81;48.50;100446.94;5076238;28;20032;-81
2022/03/30 10:13:58;;;;;;;22.73;13.70;;;;;;;14.93;47.67;100449.56;5060829;28;20032;-82
2022/03/30 10:16:24;;;;;;;23.87;14.20;;;;;;;14.89;47.38;100464.78;5060400;28;20407;-85
2022/03/30 10:18:51;;;;;;;24.63;13.47;;;;;;;14.81;47.43;100466.03;5060712;28;20133;-80
2022/03/30 10:21:16;;;;;;;22.27;12.87;;;;;;;14.55;47.10;100459.31;5060755;28;20041;-84
2022/03/30 10:24:14;;;;;;;23.00;14.10;;;;;;;14.12;49.47;100458.03;5060913;28;20067;-84
2022/03/30 10:26:58;;;;;;;23.73;14.47;;;;;;;13.91;48.72;100448.66;5061158;28;20039;-82
2022/03/30 10:29:27;;;;;;;23.20;13.90;;;;;;;14.00;48.48;100456.19;5065519;28;20028;-80
2022/03/30 10:32:09;;;;;;;22.47;13.97;;;;;;;14.41;50.07;100450.63;5073384;28;20831;-79
2022/03/30 10:34:49;;;;;;;25.20;13.93;;;;;;;14.21;48.54;100442.94;5071954;28;20403;-87
2022/03/30 10:37:29;;;;;;;22.80;13.10;;;;;;;14.35;48.61;100443.44;5059694;28;20029;-85
2022/03/30 10:39:56;;;;;;;25.67;14.17;;;;;;;14.15;47.14;100454.81;5075773;28;20552;-80
2022/03/30 10:42:22;;;;;;;24.87;14.13;;;;;;;13.96;47.32;100425.06;5060130;28;20704;-81
2022/03/30 10:44:59;;;;;;;23.07;14.10;;;;;;;13.90;48.39;100422.47;5060539;28;20044;-79
2022/03/30 10:47:27;;;;;;;25.33;14.00;;;;;;;13.93;47.18;100419.28;5063137;28;20063;-82
2022/03/30 10:50:00;;;;;;;21.13;13.27;;;;;;;14.25;48.74;100413.28;5062217;28;20033;-86
2022/03/30 10:52:49;;;;;;;23.63;13.97;;;;;;;14.15;47.27;100411.22;5077038;28;20047;-80
2022/03/30 10:55:14;;;;;;;22.87;13.77;;;;;;;14.48;47.98;100434.09;5064958;28;20050;-82
2022/03/30 10:57:58;;;;;;;22.60;13.37;;;;;;;14.64;48.39;100397.84;5064550;28;20070;-80
2022/03/30 11:00:27;;;;;;;22.97;13.47;;;;;;;14.87;46.00;100411.56;5062971;28;20085;-86
2022/03/30 11:03:05;;;;;;;24.23;13.10;;;;;;;15.13;46.06;100410.00;5060294;28;20301;-81
2022/03/30 11:05:33;;;;;;;21.93;12.33;;;;;;;15.00;44.58;100413.91;5062666;28;20044;-81
2022/03/30 11:07:59;;;;;;;21.83;12.67;;;;;;;14.74;47.43;100393.63;5061416;28;20488;-84
2022/03/30 11:10:29;;;;;;;45.17;15.03;;;;;;;14.66;44.79;100383.97;5076199;28;20135;-83
2022/03/30 11:13:11;;;;;;;20.80;12.83;;;;;;;15.07;45.95;100375.53;5080358;28;20349;-83
2022/03/30 11:16:01;;;;;;;28.57;13.47;;;;;;;15.55;46.06;100390.28;5063409;28;20036;-81
2022/03/30 11:18:27;;;;;;;21.57;12.57;;;;;;;15.59;45.61;100385.97;5078771;28;20056;-81
2022/03/30 11:21:08;;;;;;;21.27;12.27;;;;;;;16.12;45.38;100388.16;5080549;28;20031;-81
2022/03/30 11:23:37;;;;;;;22.07;12.77;;;;;;;14.76;43.75;100372.41;5082397;28;20032;-87
2022/03/30 11:26:03;;;;;;;18.37;12.47;;;;;;;14.77;45.09;100384.94;5073672;28;20573;-82
2022/03/30 11:28:48;;;;;;;20.03;11.47;;;;;;;15.14;46.01;100385.19;5074551;28;20062;-81
2022/03/30 11:31:31;;;;;;;19.58;12.05;;;;;;;15.07;45.76;100361.88;5068173;28;20467;-86
2022/03/30 11:34:42;;;;;;;21.58;12.48;;;;;;;15.06;46.68;100371.16;5062861;28;20040;-85
2022/03/30 11:37:12;;;;;;;21.20;12.40;;;;;;;14.83;45.42;100352.03;5068884;28;20045;-82
2022/03/30 11:40:02;;;;;;;19.30;12.03;;;;;;;15.40;46.04;100371.84;5070174;28;20520;-83
2022/03/30 11:42:28;;;;;;;22.57;12.33;;;;;;;15.28;44.06;100349.31;5062726;28;20027;-83
2022/03/30 11:45:15;;;;;;;16.63;10.83;;;;;;;15.05;43.14;100342.22;5062779;28;20044;-85